Time,TemperatureF,DewpointF,PressureIn,WindDirection,WindDirectionDegrees,WindSpeedMPH,WindSpeedGustMPH,Humidity,HourlyPrecipIn,Conditions,Clouds,dailyrainin,SoftwareType,DateUTC
2013-01-22 00:09:00,55.6,15.1,30.05,NNE,15,2.0,4.0,20,0.00,,,0.00,Wunderground v.1.15,2013-01-22 08:09:00,
2013-01-22 00:19:00,55.4,13.8,30.05,NNE,15,2.0,2.0,19,0.00,,,0.00,Wunderground v.1.15,2013-01-22 08:19:00,
2013-01-22 00:29:00,55.4,13.8,30.05,NNE,15,0.0,0.0,19,0.00,,,0.00,Wunderground v.1.15,2013-01-22 08:29:00,
2013-01-22 00:39:00,55.7,14.0,30.05,NNE,15,1.0,1.0,19,0.00,,,0.00,Wunderground v.1.15,2013-01-22 08:39:00,
2013-01-22 00:49:00,55.6,13.9,30.05,NNE,15,1.0,2.0,19,0.00,,,0.00,Wunderground v.1.15,2013-01-22 08:49:00,
2013-01-22 00:59:00,55.4,14.9,30.05,NNE,15,1.0,2.0,20,0.00,,,0.00,Wunderground v.1.15,2013-01-22 08:59:00,
2013-01-22 01:09:00,55.1,14.7,30.05,NNE,15,2.0,3.0,20,0.00,,,0.00,Wunderground v.1.15,2013-01-22 09:09:00,
2013-01-22 01:19:00,54.7,14.4,30.06,NNE,15,3.0,3.0,20,0.00,,,0.00,Wunderground v.1.15,2013-01-22 09:19:00,
2013-01-22 01:29:00,54.1,15.0,30.05,NNE,15,3.0,3.0,21,0.00,,,0.00,Wunderground v.1.15,2013-01-22 09:29:00,
2013-01-22 01:39:00,53.8,14.7,30.05,NNE,16,3.0,4.0,21,0.00,,,0.00,Wunderground v.1.15,2013-01-22 09:39:00,
2013-01-22 01:49:00,53.8,14.7,30.05,NNE,16,3.0,3.0,21,0.00,,,0.00,Wunderground v.1.15,2013-01-22 09:49:00,
2013-01-22 01:59:00,53.9,14.8,30.05,NNE,22,5.0,5.0,21,0.00,,,0.00,Wunderground v.1.15,2013-01-22 09:59:00,
2013-01-22 02:09:00,53.9,14.8,30.05,NNE,22,4.0,4.0,21,0.00,,,0.00,Wunderground v.1.15,2013-01-22 10:09:00,
2013-01-22 02:19:00,53.8,14.7,30.05,NNE,22,2.0,2.0,21,0.00,,,0.00,Wunderground v.1.15,2013-01-22 10:19:00,
2013-01-22 02:29:00,53.5,14.5,30.05,NNE,22,3.0,6.0,21,0.00,,,0.00,Wunderground v.1.15,2013-01-22 10:29:00,
2013-01-22 02:39:00,53.8,13.6,30.05,NNE,22,5.0,5.0,20,0.00,,,0.00,Wunderground v.1.15,2013-01-22 10:39:00,
2013-01-22 02:49:00,54.1,13.9,30.06,NNE,22,3.0,3.0,20,0.00,,,0.00,Wunderground v.1.15,2013-01-22 10:49:00,
2013-01-22 02:59:00,54.4,14.1,30.05,NNE,22,2.0,2.0,20,0.00,,,0.00,Wunderground v.1.15,2013-01-22 10:59:00,
2013-01-22 03:09:00,54.2,13.9,30.05,NNE,22,3.0,3.0,20,0.00,,,0.00,Wunderground v.1.15,2013-01-22 11:09:00,
2013-01-22 03:19:00,53.8,14.7,30.05,NNE,22,1.0,1.0,21,0.00,,,0.00,Wunderground v.1.15,2013-01-22 11:19:00,
2013-01-22 03:29:00,53.2,15.3,30.05,NNE,22,0.0,0.0,22,0.00,,,0.00,Wunderground v.1.15,2013-01-22 11:29:00,
2013-01-22 03:39:00,52.9,14.0,30.05,NNE,22,0.0,0.0,21,0.00,,,0.00,Wunderground v.1.15,2013-01-22 11:39:00,
2013-01-22 03:49:00,52.8,12.8,30.04,NNE,22,1.0,1.0,20,0.00,,,0.00,Wunderground v.1.15,2013-01-22 11:49:00,
2013-01-22 03:59:00,52.9,14.0,30.04,NNE,22,3.0,3.0,21,0.00,,,0.00,Wunderground v.1.15,2013-01-22 11:59:00,
2013-01-22 04:09:00,52.3,14.5,30.04,NNE,22,3.0,3.0,22,0.00,,,0.00,Wunderground v.1.15,2013-01-22 12:09:00,
2013-01-22 04:19:00,52.0,14.3,30.03,NNE,23,4.0,4.0,22,0.00,,,0.00,Wunderground v.1.15,2013-01-22 12:19:00,
2013-01-22 04:29:00,52.6,13.7,30.03,NNE,24,4.0,4.0,21,0.00,,,0.00,Wunderground v.1.15,2013-01-22 12:29:00,
2013-01-22 04:39:00,53.1,13.0,30.03,NNE,24,2.0,2.0,20,0.00,,,0.00,Wunderground v.1.15,2013-01-22 12:39:00,
2013-01-22 04:49:00,53.6,12.3,30.03,NNE,24,0.0,2.0,19,0.00,,,0.00,Wunderground v.1.15,2013-01-22 12:49:00,
2013-01-22 04:59:00,54.7,12.0,30.04,NNE,24,1.0,1.0,18,0.00,,,0.00,Wunderground v.1.15,2013-01-22 12:59:00,
2013-01-22 05:09:00,55.1,12.3,30.04,NNE,24,0.0,2.0,18,0.00,,,0.00,Wunderground v.1.15,2013-01-22 13:09:00,
2013-01-22 05:19:00,55.7,11.5,30.04,NNE,24,0.0,0.0,17,0.00,,,0.00,Wunderground v.1.15,2013-01-22 13:19:00,
2013-01-22 05:29:00,55.7,11.5,30.05,NNE,24,0.0,0.0,17,0.00,,,0.00,Wunderground v.1.15,2013-01-22 13:29:00,
2013-01-22 05:39:00,55.4,11.2,30.05,NNE,24,1.0,1.0,17,0.00,,,0.00,Wunderground v.1.15,2013-01-22 13:39:00,
2013-01-22 05:49:00,55.1,11.0,30.05,NNE,24,0.0,0.0,17,0.00,,,0.00,Wunderground v.1.15,2013-01-22 13:49:00,
2013-01-22 05:59:00,55.1,12.3,30.05,NNE,24,0.0,1.0,18,0.00,,,0.00,Wunderground v.1.15,2013-01-22 13:59:00,
2013-01-22 06:09:00,54.5,11.8,30.05,NNE,24,0.0,0.0,18,0.00,,,0.00,Wunderground v.1.15,2013-01-22 14:09:00,
2013-01-22 06:19:00,53.9,12.5,30.05,NNE,24,1.0,1.0,19,0.00,,,0.00,Wunderground v.1.15,2013-01-22 14:19:00,
2013-01-22 06:29:00,53.8,13.6,30.06,NNE,24,1.0,1.0,20,0.00,,,0.00,Wunderground v.1.15,2013-01-22 14:29:00,
2013-01-22 06:39:00,53.8,12.4,30.06,NNE,27,1.0,1.0,19,0.00,,,0.00,Wunderground v.1.15,2013-01-22 14:39:00,
2013-01-22 06:49:00,55.0,12.2,30.06,NNE,26,1.0,1.0,18,0.00,,,0.00,Wunderground v.1.15,2013-01-22 14:49:00,
2013-01-22 06:59:00,55.4,12.5,30.06,NE,38,3.0,3.0,18,0.00,,,0.00,Wunderground v.1.15,2013-01-22 14:59:00,
2013-01-22 07:09:00,56.3,12.0,30.06,NE,48,4.0,4.0,17,0.00,,,0.00,Wunderground v.1.15,2013-01-22 15:09:00,
2013-01-22 07:19:00,58.0,12.0,30.05,NE,47,6.0,6.0,16,0.00,,,0.00,Wunderground v.1.15,2013-01-22 15:19:00,
2013-01-22 07:29:00,58.1,13.4,30.06,NE,41,5.0,5.0,17,0.00,,,0.00,Wunderground v.1.15,2013-01-22 15:29:00,
2013-01-22 07:39:00,58.0,13.4,30.06,NE,48,2.0,2.0,17,0.00,,,0.00,Wunderground v.1.15,2013-01-22 15:39:00,
2013-01-22 07:49:00,58.1,14.8,30.06,NE,48,1.0,1.0,18,0.00,,,0.00,Wunderground v.1.15,2013-01-22 15:49:00,
2013-01-22 07:59:00,58.9,14.1,30.07,NE,48,0.0,0.0,17,0.00,,,0.00,Wunderground v.1.15,2013-01-22 15:59:00,
2013-01-22 08:09:00,60.7,16.9,30.07,NE,48,0.0,0.0,18,0.00,,,0.00,Wunderground v.1.15,2013-01-22 16:09:00,
2013-01-22 08:19:00,61.3,18.6,30.07,NE,48,0.0,0.0,19,0.00,,,0.00,Wunderground v.1.15,2013-01-22 16:19:00,
2013-01-22 08:29:00,62.3,16.9,30.08,NE,47,0.0,0.0,17,0.00,,,0.00,Wunderground v.1.15,2013-01-22 16:29:00,
2013-01-22 08:39:00,63.5,17.8,30.08,NE,48,0.0,0.0,17,0.00,,,0.00,Wunderground v.1.15,2013-01-22 16:39:00,
2013-01-22 08:49:00,63.5,21.7,30.08,NE,48,0.0,0.0,20,0.00,,,0.00,Wunderground v.1.15,2013-01-22 16:49:00,
2013-01-22 08:59:00,65.0,21.7,30.07,ENE,73,1.0,1.0,19,0.00,,,0.00,Wunderground v.1.15,2013-01-22 16:59:00,
2013-01-22 09:09:00,66.3,21.5,30.07,ENE,73,1.0,1.0,18,0.00,,,0.00,Wunderground v.1.15,2013-01-22 17:09:00,
2013-01-22 09:19:00,67.6,21.2,30.07,ENE,69,1.0,1.0,17,0.00,,,0.00,Wunderground v.1.15,2013-01-22 17:19:00,
2013-01-22 09:29:00,68.8,19.2,30.08,ENE,71,0.0,0.0,15,0.00,,,0.00,Wunderground v.1.15,2013-01-22 17:29:00,
2013-01-22 09:39:00,69.4,18.1,30.08,ENE,71,0.0,1.0,14,0.00,,,0.00,Wunderground v.1.15,2013-01-22 17:39:00,
2013-01-22 09:49:00,70.3,17.1,30.08,ESE,109,2.0,5.0,13,0.00,,,0.00,Wunderground v.1.15,2013-01-22 17:49:00,
2013-01-22 09:59:00,71.1,17.7,30.08,East,80,1.0,1.0,13,0.00,,,0.00,Wunderground v.1.15,2013-01-22 17:59:00,
2013-01-22 10:09:00,72.5,16.9,30.08,East,91,1.0,1.0,12,0.00,,,0.00,Wunderground v.1.15,2013-01-22 18:09:00,
2013-01-22 10:19:00,73.5,15.7,30.08,East,96,2.0,2.0,11,0.00,,,0.00,Wunderground v.1.15,2013-01-22 18:19:00,
2013-01-22 10:29:00,74.4,14.2,30.08,East,92,2.0,3.0,10,0.00,,,0.00,Wunderground v.1.15,2013-01-22 18:29:00,
2013-01-22 10:39:00,75.3,14.9,30.08,East,94,3.0,3.0,10,0.00,,,0.00,Wunderground v.1.15,2013-01-22 18:39:00,
2013-01-22 10:49:00,75.8,15.3,30.07,East,79,3.0,4.0,10,0.00,,,0.00,Wunderground v.1.15,2013-01-22 18:49:00,
2013-01-22 10:59:00,76.0,13.0,30.06,ESE,112,4.0,4.0,9,0.00,,,0.00,Wunderground v.1.15,2013-01-22 18:59:00,
2013-01-22 11:09:00,76.5,13.4,30.06,East,101,4.0,4.0,9,0.00,,,0.00,Wunderground v.1.15,2013-01-22 19:09:00,
2013-01-22 11:19:00,77.2,11.3,30.05,East,98,3.0,3.0,8,0.00,,,0.00,Wunderground v.1.15,2013-01-22 19:19:00,
2013-01-22 11:29:00,77.2,13.9,30.05,ENE,62,2.0,2.0,9,0.00,,,0.00,Wunderground v.1.15,2013-01-22 19:29:00,
2013-01-22 11:39:00,77.7,11.6,30.05,East,96,4.0,6.0,8,0.00,,,0.00,Wunderground v.1.15,2013-01-22 19:39:00,
2013-01-22 11:49:00,77.7,11.6,30.03,ESE,106,5.0,5.0,8,0.00,,,0.00,Wunderground v.1.15,2013-01-22 19:49:00,
2013-01-22 11:59:00,78.6,15.0,30.03,ESE,106,2.0,2.0,9,0.00,,,0.00,Wunderground v.1.15,2013-01-22 19:59:00,
2013-01-22 12:09:00,78.3,14.8,30.03,NNE,32,4.0,4.0,9,0.00,,,0.00,Wunderground v.1.15,2013-01-22 20:09:00,
2013-01-22 12:19:00,78.8,12.5,30.02,East,97,3.0,4.0,8,0.00,,,0.00,Wunderground v.1.15,2013-01-22 20:19:00,
2013-01-22 12:29:00,79.0,12.6,30.02,ESE,123,6.0,6.0,8,0.00,,,0.00,Wunderground v.1.15,2013-01-22 20:29:00,
2013-01-22 12:39:00,76.1,26.6,30.02,South,188,6.0,11.0,16,0.00,,,0.00,Wunderground v.1.15,2013-01-22 20:39:00,
2013-01-22 12:49:00,73.2,33.2,30.02,SSW,201,9.0,9.0,23,0.00,,,0.00,Wunderground v.1.15,2013-01-22 20:49:00,
2013-01-22 12:59:00,71.5,34.8,30.02,SSW,194,9.0,9.0,26,0.00,,,0.00,Wunderground v.1.15,2013-01-22 20:59:00,
2013-01-22 13:09:00,71.1,30.3,30.02,SW,221,10.0,11.0,22,0.00,,,0.00,Wunderground v.1.15,2013-01-22 21:09:00,
2013-01-22 13:19:00,73.2,27.1,30.03,South,191,11.0,12.0,18,0.00,,,0.00,Wunderground v.1.15,2013-01-22 21:19:00,
2013-01-22 13:29:00,73.7,28.8,30.03,SSW,192,10.0,13.0,19,0.00,,,0.00,Wunderground v.1.15,2013-01-22 21:29:00,
2013-01-22 13:39:00,74.4,25.2,30.03,SSW,196,10.0,10.0,16,0.00,,,0.00,Wunderground v.1.15,2013-01-22 21:39:00,
2013-01-22 13:49:00,73.9,26.3,30.02,SSW,200,10.0,13.0,17,0.00,,,0.00,Wunderground v.1.15,2013-01-22 21:49:00,
2013-01-22 13:59:00,73.2,27.1,30.02,South,187,10.0,11.0,18,0.00,,,0.00,Wunderground v.1.15,2013-01-22 21:59:00,
2013-01-22 14:09:00,73.5,29.9,30.02,SSW,200,11.0,13.0,20,0.00,,,0.00,Wunderground v.1.15,2013-01-22 22:09:00,
2013-01-22 14:19:00,73.5,27.4,30.01,SSW,200,10.0,12.0,18,0.00,,,0.00,Wunderground v.1.15,2013-01-22 22:19:00,
2013-01-22 14:29:00,72.0,31.0,30.02,SSW,204,10.0,10.0,22,0.00,,,0.00,Wunderground v.1.15,2013-01-22 22:29:00,
2013-01-22 14:39:00,71.3,29.3,30.02,WSW,238,7.0,7.0,21,0.00,,,0.00,Wunderground v.1.15,2013-01-22 22:39:00,
2013-01-22 14:49:00,71.6,28.4,30.01,WSW,238,4.0,4.0,20,0.00,,,0.00,Wunderground v.1.15,2013-01-22 22:49:00,
2013-01-22 14:59:00,71.5,25.7,30.00,SW,227,3.0,4.0,18,0.00,,,0.00,Wunderground v.1.15,2013-01-22 22:59:00,
2013-01-22 15:09:00,71.5,27.0,30.00,SW,227,2.0,3.0,19,0.00,,,0.00,Wunderground v.1.15,2013-01-22 23:09:00,
2013-01-22 15:19:00,71.6,25.8,29.99,SW,227,1.0,4.0,18,0.00,,,0.00,Wunderground v.1.15,2013-01-22 23:19:00,
2013-01-22 15:29:00,71.5,27.0,30.02,SSW,205,6.0,14.0,19,0.00,,,0.00,Wunderground v.1.15,2013-01-22 23:29:00,
2013-01-22 15:39:00,68.4,32.1,30.02,WSW,249,10.0,10.0,26,0.00,,,0.00,Wunderground v.1.15,2013-01-22 23:39:00,
2013-01-22 15:49:00,65.5,34.8,30.03,SW,226,8.0,10.0,32,0.00,,,0.00,Wunderground v.1.15,2013-01-22 23:49:00,
2013-01-22 15:59:00,64.7,34.9,30.03,West,278,6.0,6.0,33,0.00,,,0.00,Wunderground v.1.15,2013-01-22 23:59:00,
2013-01-22 16:09:00,64.5,36.2,30.03,WNW,286,2.0,6.0,35,0.00,,,0.00,Wunderground v.1.15,2013-01-23 00:09:00,
2013-01-22 16:19:00,64.2,36.0,30.03,NW,323,3.0,3.0,35,0.00,,,0.00,Wunderground v.1.15,2013-01-23 00:19:00,
2013-01-22 16:29:00,64.0,35.8,30.03,NW,323,1.0,1.0,35,0.00,,,0.00,Wunderground v.1.15,2013-01-23 00:29:00,
2013-01-22 16:39:00,64.0,32.7,30.03,NW,323,0.0,0.0,31,0.00,,,0.00,Wunderground v.1.15,2013-01-23 00:39:00,
2013-01-22 16:49:00,63.9,32.6,30.03,NW,323,1.0,2.0,31,0.00,,,0.00,Wunderground v.1.15,2013-01-23 00:49:00,
2013-01-22 16:59:00,63.7,32.5,30.03,NW,323,0.0,0.0,31,0.00,,,0.00,Wunderground v.1.15,2013-01-23 00:59:00,
2013-01-22 17:09:00,63.2,32.0,30.03,NW,323,0.0,0.0,31,0.00,,,0.00,Wunderground v.1.15,2013-01-23 01:09:00,
2013-01-22 17:19:00,62.6,31.5,30.03,NW,323,0.0,0.0,31,0.00,,,0.00,Wunderground v.1.15,2013-01-23 01:19:00,
2013-01-22 17:29:00,61.6,32.2,30.03,NW,323,0.0,0.0,33,0.00,,,0.00,Wunderground v.1.15,2013-01-23 01:29:00,
2013-01-22 17:39:00,61.3,31.9,30.03,NW,323,0.0,0.0,33,0.00,,,0.00,Wunderground v.1.15,2013-01-23 01:39:00,
2013-01-22 17:49:00,61.3,32.7,30.03,NW,323,0.0,0.0,34,0.00,,,0.00,Wunderground v.1.15,2013-01-23 01:49:00,
2013-01-22 17:59:00,61.0,38.3,30.03,NNW,344,1.0,3.0,43,0.00,,,0.00,Wunderground v.1.15,2013-01-23 01:59:00,
2013-01-22 18:09:00,59.9,39.1,30.03,North,9,1.0,1.0,46,0.00,,,0.00,Wunderground v.1.15,2013-01-23 02:09:00,
2013-01-22 18:19:00,58.9,39.8,30.03,ENE,58,1.0,1.0,49,0.00,,,0.00,Wunderground v.1.15,2013-01-23 02:19:00,
2013-01-22 18:29:00,58.6,39.0,30.04,ENE,58,0.0,0.0,48,0.00,,,0.00,Wunderground v.1.15,2013-01-23 02:29:00,
2013-01-22 18:39:00,58.4,37.7,30.04,ENE,58,0.0,0.0,46,0.00,,,0.00,Wunderground v.1.15,2013-01-23 02:39:00,
2013-01-22 18:49:00,57.8,36.6,30.05,ENE,58,0.0,0.0,45,0.00,,,0.00,Wunderground v.1.15,2013-01-23 02:49:00,
2013-01-22 18:59:00,57.2,36.0,30.04,ENE,58,0.0,2.0,45,0.00,,,0.00,Wunderground v.1.15,2013-01-23 02:59:00,
2013-01-22 19:09:00,56.7,35.0,30.04,ENE,57,2.0,4.0,44,0.00,,,0.00,Wunderground v.1.15,2013-01-23 03:09:00,
2013-01-22 19:19:00,56.2,33.4,30.03,NNE,32,3.0,4.0,42,0.00,,,0.00,Wunderground v.1.15,2013-01-23 03:19:00,
2013-01-22 19:29:00,55.9,30.6,30.03,NNE,32,2.0,3.0,38,0.00,,,0.00,Wunderground v.1.15,2013-01-23 03:29:00,
2013-01-22 19:39:00,55.9,30.6,30.03,NNE,32,2.0,2.0,38,0.00,,,0.00,Wunderground v.1.15,2013-01-23 03:39:00,
2013-01-22 19:49:00,55.9,30.6,30.03,NNE,32,2.0,2.0,38,0.00,,,0.00,Wunderground v.1.15,2013-01-23 03:49:00,
2013-01-22 19:59:00,55.7,29.8,30.04,NNE,32,2.0,2.0,37,0.00,,,0.00,Wunderground v.1.15,2013-01-23 03:59:00,
2013-01-22 20:09:00,55.4,29.5,30.04,NNE,32,2.0,4.0,37,0.00,,,0.00,Wunderground v.1.15,2013-01-23 04:09:00,
2013-01-22 20:19:00,55.3,28.8,30.03,NNE,32,4.0,4.0,36,0.00,,,0.00,Wunderground v.1.15,2013-01-23 04:19:00,
2013-01-22 20:29:00,55.1,28.6,30.04,NNE,32,3.0,3.0,36,0.00,,,0.00,Wunderground v.1.15,2013-01-23 04:29:00,
2013-01-22 20:39:00,55.1,27.9,30.04,NNE,32,2.0,2.0,35,0.00,,,0.00,Wunderground v.1.15,2013-01-23 04:39:00,
2013-01-22 20:49:00,55.4,26.7,30.04,NNE,32,3.0,3.0,33,0.00,,,0.00,Wunderground v.1.15,2013-01-23 04:49:00,
2013-01-22 20:59:00,55.7,24.7,30.05,NNE,32,1.0,4.0,30,0.00,,,0.00,Wunderground v.1.15,2013-01-23 04:59:00,
2013-01-22 21:09:00,56.3,25.2,30.05,NNE,32,4.0,4.0,30,0.00,,,0.00,Wunderground v.1.15,2013-01-23 05:09:00,
2013-01-22 21:19:00,56.6,25.5,30.05,NNE,32,4.0,4.0,30,0.00,,,0.00,Wunderground v.1.15,2013-01-23 05:19:00,
2013-01-22 21:29:00,56.5,24.6,30.05,NNE,32,4.0,4.0,29,0.00,,,0.00,Wunderground v.1.15,2013-01-23 05:29:00,
2013-01-22 21:39:00,56.5,24.6,30.05,NNE,32,3.0,3.0,29,0.00,,,0.00,Wunderground v.1.15,2013-01-23 05:39:00,
2013-01-22 21:49:00,56.3,24.4,30.05,NNE,32,3.0,5.0,29,0.00,,,0.00,Wunderground v.1.15,2013-01-23 05:49:00,
2013-01-22 21:59:00,56.0,23.3,30.05,NNE,32,3.0,3.0,28,0.00,,,0.00,Wunderground v.1.15,2013-01-23 05:59:00,
2013-01-22 22:09:00,55.9,23.2,30.05,NNE,32,3.0,4.0,28,0.00,,,0.00,Wunderground v.1.15,2013-01-23 06:09:00,
2013-01-22 22:19:00,56.2,23.5,30.05,NNE,31,4.0,4.0,28,0.00,,,0.00,Wunderground v.1.15,2013-01-23 06:19:00,
2013-01-22 22:29:00,56.7,22.2,30.05,NNE,31,3.0,3.0,26,0.00,,,0.00,Wunderground v.1.15,2013-01-23 06:29:00,
2013-01-22 22:39:00,57.0,22.4,30.05,NNE,31,3.0,3.0,26,0.00,,,0.00,Wunderground v.1.15,2013-01-23 06:39:00,
2013-01-22 22:49:00,56.7,22.2,30.05,NNE,31,2.0,2.0,26,0.00,,,0.00,Wunderground v.1.15,2013-01-23 06:49:00,
2013-01-22 22:59:00,56.5,22.0,30.05,NNE,31,2.0,3.0,26,0.00,,,0.00,Wunderground v.1.15,2013-01-23 06:59:00,
2013-01-22 23:09:00,56.3,20.9,30.05,NNE,30,4.0,5.0,25,0.00,,,0.00,Wunderground v.1.15,2013-01-23 07:09:00,
2013-01-22 23:19:00,56.3,21.8,30.04,NNE,31,4.0,4.0,26,0.00,,,0.00,Wunderground v.1.15,2013-01-23 07:19:00,
2013-01-22 23:29:00,56.3,21.8,30.03,NNE,31,4.0,5.0,26,0.00,,,0.00,Wunderground v.1.15,2013-01-23 07:29:00,
2013-01-22 23:39:00,56.5,21.1,30.03,NNE,31,4.0,4.0,25,0.00,,,0.00,Wunderground v.1.15,2013-01-23 07:39:00,
2013-01-22 23:49:00,56.6,21.1,30.03,NNE,31,4.0,4.0,25,0.00,,,0.00,Wunderground v.1.15,2013-01-23 07:49:00,
2013-01-22 23:59:00,56.6,20.2,30.04,NNE,31,3.0,3.0,24,0.00,,,0.00,Wunderground v.1.15,2013-01-23 07:59:00,